createdAt,value
2022-08-11T00:01:21.163Z,1.70
2022-08-11T00:03:55.076Z,1.70
2022-08-11T00:06:31.497Z,1.40
2022-08-11T00:09:01.281Z,1.55
2022-08-11T00:11:39.293Z,1.63
2022-08-11T00:14:19.992Z,1.50
2022-08-11T00:16:56.816Z,1.30
2022-08-11T00:20:15.153Z,1.55
2022-08-11T00:22:23.593Z,0.93
2022-08-11T00:24:56.039Z,1.58
2022-08-11T00:27:40.061Z,1.60
2022-08-11T00:30:10.718Z,1.00
2022-08-11T00:32:42.177Z,1.45
2022-08-11T00:35:51.125Z,1.20
2022-08-11T00:38:03.931Z,1.33
2022-08-11T00:40:40.658Z,1.10
2022-08-11T00:43:21.931Z,1.20
2022-08-11T00:46:11.765Z,1.25
2022-08-11T00:48:51.469Z,1.42
2022-08-11T00:51:56.689Z,1.10
2022-08-11T00:54:52.193Z,1.38
2022-08-11T00:58:26.998Z,1.25
2022-08-11T01:01:11.570Z,1.30
2022-08-11T01:04:18.250Z,1.02
2022-08-11T01:08:02.155Z,1.08
2022-08-11T01:10:34.005Z,1.20
2022-08-11T01:13:16.235Z,1.00
2022-08-11T01:16:25.918Z,1.25
2022-08-11T01:20:45.324Z,0.82
2022-08-11T01:23:15.844Z,0.85
2022-08-11T01:26:23.817Z,0.82
2022-08-11T01:29:31.001Z,1.30
2022-08-11T01:32:50.963Z,0.98
2022-08-11T01:35:41.822Z,0.93
2022-08-11T01:38:52.167Z,0.90
2022-08-11T01:42:24.153Z,1.20
2022-08-11T01:45:09.698Z,1.20
2022-08-11T01:47:55.171Z,1.10
2022-08-11T01:50:47.022Z,1.17
2022-08-11T01:53:28.430Z,1.05
2022-08-11T01:56:06.624Z,1.60
2022-08-11T01:58:44.115Z,0.93
2022-08-11T02:01:31.836Z,1.02
2022-08-11T02:04:08.782Z,1.20
2022-08-11T02:06:55.674Z,1.23
2022-08-11T02:09:49.879Z,1.17
2022-08-11T02:12:34.498Z,1.20
2022-08-11T02:15:15.613Z,1.15
2022-08-11T02:17:58.378Z,1.00
2022-08-11T02:20:50.581Z,1.15
2022-08-11T02:24:07.091Z,1.23
2022-08-11T02:26:40.935Z,1.45
2022-08-11T02:29:19.916Z,1.20
2022-08-11T02:32:28.784Z,1.05
2022-08-11T02:35:13.337Z,1.05
2022-08-11T02:37:53.369Z,1.17
2022-08-11T02:40:35.620Z,1.33
2022-08-11T02:43:12.816Z,1.10
2022-08-11T02:45:54.690Z,1.27
2022-08-11T02:49:06.694Z,1.30
2022-08-11T02:51:43.747Z,1.27
2022-08-11T02:54:29.071Z,1.35
2022-08-11T02:57:05.746Z,1.15
2022-08-11T02:59:51.459Z,1.60
2022-08-11T03:02:35.144Z,1.30
2022-08-11T03:05:18.397Z,1.40
2022-08-11T03:08:04.279Z,1.10
2022-08-11T03:10:42.704Z,1.10
2022-08-11T03:13:38.535Z,1.40
2022-08-11T03:16:34.346Z,1.13
2022-08-11T03:19:12.093Z,1.00
2022-08-11T03:22:01.695Z,1.33
2022-08-11T03:24:42.217Z,1.20
2022-08-11T03:27:21.514Z,1.35
2022-08-11T03:30:06.789Z,1.13
2022-08-11T03:32:42.166Z,1.50
2022-08-11T03:35:21.422Z,1.30
2022-08-11T03:37:56.711Z,1.10
2022-08-11T03:41:54.619Z,0.95
2022-08-11T03:44:11.721Z,1.50
2022-08-11T03:47:00.854Z,1.30
2022-08-11T03:49:39.287Z,1.60
2022-08-11T03:52:18.817Z,1.30
2022-08-11T03:54:56.748Z,1.20
2022-08-11T03:58:14.012Z,1.38
2022-08-11T04:01:34.952Z,1.50
2022-08-11T04:04:35.575Z,1.30
2022-08-11T04:07:47.197Z,1.50
2022-08-11T04:11:10.951Z,1.30
2022-08-11T04:14:22.873Z,1.30
2022-08-11T04:17:08.504Z,1.30
2022-08-11T04:20:02.067Z,1.33
2022-08-11T04:23:03.659Z,1.30
2022-08-11T04:26:11.661Z,1.40
2022-08-11T04:29:02.151Z,1.30
2022-08-11T04:31:50.737Z,1.27
2022-08-11T04:34:45.450Z,1.50
2022-08-11T04:37:43.041Z,1.60
2022-08-11T04:40:34.630Z,1.38
2022-08-11T04:44:02.712Z,1.52
2022-08-11T04:47:04.438Z,1.65
2022-08-11T04:50:22.012Z,1.33
2022-08-11T04:53:38.041Z,1.65
2022-08-11T04:56:32.255Z,1.70
2022-08-11T04:59:51.828Z,1.50
2022-08-11T05:03:00.050Z,1.48
2022-08-11T05:05:54.721Z,1.40
2022-08-11T05:09:11.640Z,1.40
2022-08-11T05:12:14.529Z,1.67
2022-08-11T05:15:08.678Z,1.50
2022-08-11T05:18:14.380Z,1.33
2022-08-11T05:21:08.100Z,1.92
2022-08-11T05:24:00.203Z,1.60
2022-08-11T05:26:56.409Z,2.13
2022-08-11T05:29:54.925Z,1.65
2022-08-11T05:32:42.449Z,1.77
2022-08-11T05:35:30.209Z,2.38
2022-08-11T05:38:19.744Z,3.72
2022-08-11T05:41:10.485Z,2.22
2022-08-11T05:44:20.262Z,2.67
2022-08-11T05:47:09.032Z,2.72
2022-08-11T05:49:57.818Z,3.33
2022-08-11T05:52:46.412Z,3.88
2022-08-11T05:55:34.227Z,4.75
2022-08-11T05:58:05.119Z,2.42
2022-08-11T06:00:43.761Z,2.40
2022-08-11T06:03:13.191Z,2.05
2022-08-11T06:05:43.908Z,2.13
2022-08-11T06:08:14.746Z,1.98
2022-08-11T06:10:45.059Z,1.83
2022-08-11T06:13:18.154Z,1.80
2022-08-11T06:15:50.018Z,1.50
2022-08-11T06:18:19.247Z,1.55
2022-08-11T06:20:49.901Z,1.65
2022-08-11T06:23:23.714Z,1.77
2022-08-11T06:25:56.418Z,1.50
2022-08-11T06:28:32.810Z,1.60
2022-08-11T06:31:04.668Z,1.80
2022-08-11T06:33:39.809Z,1.40
2022-08-11T06:36:16.004Z,1.30
2022-08-11T06:38:59.097Z,1.83
2022-08-11T06:41:42.144Z,2.70
2022-08-11T06:44:25.603Z,2.47
2022-08-11T06:47:01.037Z,1.80
2022-08-11T06:49:50.214Z,3.08
2022-08-11T06:52:34.804Z,1.75
2022-08-11T06:55:55.251Z,1.45
2022-08-11T06:58:16.686Z,1.50
2022-08-11T07:00:48.313Z,1.55
2022-08-11T07:03:20.764Z,1.60
2022-08-11T07:05:53.061Z,1.58
2022-08-11T07:09:14.322Z,1.95
2022-08-11T07:12:34.251Z,2.00
2022-08-11T07:16:12.276Z,1.65
2022-08-11T07:18:45.320Z,2.40
2022-08-11T07:22:00.261Z,2.03
2022-08-11T07:25:02.625Z,1.75
2022-08-11T07:27:55.588Z,2.67
2022-08-11T07:30:26.829Z,1.80
2022-08-11T07:32:58.403Z,1.80
2022-08-11T07:35:33.248Z,2.40
2022-08-11T07:38:07.194Z,2.08
2022-08-11T07:40:37.478Z,1.73
2022-08-11T07:43:08.118Z,1.70
2022-08-11T07:45:54.296Z,1.85
2022-08-11T07:48:40.247Z,2.80
2022-08-11T07:51:27.708Z,2.72
2022-08-11T07:53:58.712Z,2.78
2022-08-11T07:56:54.405Z,2.33
2022-08-11T08:00:04.002Z,1.92
2022-08-11T08:02:52.484Z,2.60
2022-08-11T08:05:39.885Z,2.15
2022-08-11T08:08:27.890Z,2.28
2022-08-11T08:11:15.404Z,2.08
2022-08-11T08:14:01.807Z,2.25
2022-08-11T08:16:49.052Z,2.20
2022-08-11T08:19:20.857Z,2.20
2022-08-11T08:21:49.733Z,2.58
2022-08-11T08:24:21.177Z,1.83
2022-08-11T08:27:03.219Z,2.08
2022-08-11T08:29:52.997Z,2.17
2022-08-11T08:32:22.757Z,2.10
2022-08-11T08:34:53.020Z,2.20
2022-08-11T08:37:45.420Z,2.33
2022-08-11T08:40:15.178Z,2.35
2022-08-11T08:42:51.455Z,2.13
2022-08-11T08:45:20.619Z,2.15
2022-08-11T08:47:56.080Z,2.20
2022-08-11T08:50:47.665Z,2.50
2022-08-11T08:53:22.072Z,2.38
2022-08-11T08:55:56.825Z,2.28
2022-08-11T08:58:26.235Z,2.40
2022-08-11T09:00:56.319Z,2.35
2022-08-11T09:04:04.737Z,2.60
2022-08-11T09:06:19.274Z,2.08
2022-08-11T09:08:49.632Z,2.45
2022-08-11T09:11:43.653Z,2.55
2022-08-11T09:14:15.042Z,2.42
2022-08-11T09:16:44.920Z,2.58
2022-08-11T09:19:17.507Z,2.20
2022-08-11T09:22:08.778Z,2.15
2022-08-11T09:24:55.874Z,2.15
2022-08-11T09:27:27.593Z,2.25
2022-08-11T09:29:56.919Z,2.40
2022-08-11T09:32:25.293Z,2.40
2022-08-11T09:34:54.274Z,2.40
2022-08-11T09:37:55.748Z,2.55
2022-08-11T09:40:33.565Z,2.42
2022-08-11T09:43:23.634Z,2.22
2022-08-11T09:45:54.477Z,2.80
2022-08-11T09:48:24.755Z,2.60
2022-08-11T09:50:56.251Z,2.55
2022-08-11T09:53:37.187Z,2.67
2022-08-11T09:56:38.038Z,3.10
2022-08-11T09:59:11.085Z,2.40
2022-08-11T10:01:44.172Z,3.08
2022-08-11T10:04:16.561Z,2.58
2022-08-11T10:07:04.583Z,2.58
2022-08-11T10:09:40.204Z,2.35
2022-08-11T10:12:13.772Z,2.47
2022-08-11T10:15:03.397Z,3.08
2022-08-11T10:17:35.104Z,2.40
2022-08-11T10:20:05.867Z,2.35
2022-08-11T10:22:53.565Z,2.58
2022-08-11T10:25:58.831Z,2.65
2022-08-11T10:28:33.742Z,2.58
2022-08-11T10:31:57.579Z,2.72
2022-08-11T10:34:54.470Z,2.35
2022-08-11T10:38:08.621Z,2.17
2022-08-11T10:40:18.159Z,2.50
2022-08-11T10:43:09.190Z,2.38
2022-08-11T10:46:01.525Z,2.47
2022-08-11T10:48:36.366Z,2.63
2022-08-11T10:51:50.227Z,2.47
2022-08-11T10:54:24.762Z,2.47
2022-08-11T10:57:14.353Z,2.50
2022-08-11T10:59:43.555Z,2.40
2022-08-11T11:02:15.489Z,2.55
2022-08-11T11:05:00.475Z,2.47
2022-08-11T11:07:42.842Z,2.75
2022-08-11T11:10:13.163Z,2.55
2022-08-11T11:13:02.013Z,2.55
2022-08-11T11:15:50.352Z,2.47
2022-08-11T11:18:24.425Z,2.40
2022-08-11T11:20:58.454Z,2.90
2022-08-11T11:23:34.002Z,2.58
2022-08-11T11:26:38.617Z,2.45
2022-08-11T11:29:32.495Z,2.53
2022-08-11T11:32:16.524Z,2.47
2022-08-11T11:35:08.984Z,2.17
2022-08-11T11:37:41.102Z,2.38
2022-08-11T11:40:32.844Z,2.20
2022-08-11T11:43:02.427Z,2.28
2022-08-11T11:45:31.585Z,2.67
2022-08-11T11:48:02.088Z,2.40
2022-08-11T11:50:36.713Z,2.28
2022-08-11T11:53:08.741Z,2.50
2022-08-11T11:55:38.209Z,2.28
2022-08-11T11:58:24.777Z,2.22
2022-08-11T12:01:12.869Z,2.35
2022-08-11T12:03:42.481Z,2.50
2022-08-11T12:06:14.995Z,2.33
2022-08-11T12:08:46.527Z,2.60
2022-08-11T12:11:34.219Z,2.40
2022-08-11T12:14:10.201Z,2.80
2022-08-11T12:16:42.011Z,2.30
2022-08-11T12:19:13.054Z,2.53
2022-08-11T12:21:59.420Z,2.00
2022-08-11T12:24:49.726Z,2.28
2022-08-11T12:27:24.187Z,2.80
2022-08-11T12:29:57.396Z,2.60
2022-08-11T12:32:30.147Z,2.15
2022-08-11T12:35:00.390Z,2.25
2022-08-11T12:37:32.690Z,2.72
2022-08-11T12:40:42.729Z,2.33
2022-08-11T12:43:38.049Z,2.30
2022-08-11T12:46:11.236Z,2.33
2022-08-11T12:49:03.627Z,2.10
2022-08-11T12:52:11.653Z,2.35
2022-08-11T12:54:59.948Z,2.30
2022-08-11T12:57:52.304Z,2.50
2022-08-11T13:00:39.167Z,2.00
2022-08-11T13:03:27.925Z,2.30
2022-08-11T13:05:59.352Z,2.20
2022-08-11T13:08:31.406Z,2.67
2022-08-11T13:11:18.958Z,2.13
2022-08-11T13:13:53.587Z,2.60
2022-08-11T13:16:27.075Z,2.20
2022-08-11T13:18:56.679Z,2.22
2022-08-11T13:21:25.635Z,2.20
2022-08-11T13:24:00.758Z,2.47
2022-08-11T13:26:46.842Z,2.40
2022-08-11T13:29:20.950Z,2.38
2022-08-11T13:31:50.054Z,2.15
2022-08-11T13:34:20.394Z,2.33
2022-08-11T13:36:52.221Z,2.20
2022-08-11T13:39:24.438Z,2.47
2022-08-11T13:41:56.657Z,2.33
2022-08-11T13:44:32.071Z,2.55
2022-08-11T13:47:02.544Z,2.33
2022-08-11T13:49:32.298Z,2.25
2022-08-11T13:52:01.514Z,2.38
2022-08-11T13:54:32.708Z,2.30
2022-08-11T13:57:09.295Z,2.35
2022-08-11T13:59:52.626Z,2.53
2022-08-11T14:02:30.904Z,2.55
2022-08-11T14:05:05.327Z,2.10
2022-08-11T14:07:39.271Z,2.30
2022-08-11T14:10:10.517Z,2.40
2022-08-11T14:13:00.250Z,2.70
2022-08-11T14:15:34.392Z,2.60
2022-08-11T14:18:06.426Z,2.58
2022-08-11T14:20:50.750Z,2.35
2022-08-11T14:23:20.602Z,2.42
2022-08-11T14:26:07.776Z,2.78
2022-08-11T14:28:44.393Z,2.55
2022-08-11T14:31:16.944Z,2.45
2022-08-11T14:34:00.947Z,2.65
2022-08-11T14:36:35.044Z,2.88
2022-08-11T14:39:13.313Z,2.25
2022-08-11T14:42:09.929Z,2.28
2022-08-11T14:45:01.885Z,2.22
2022-08-11T14:47:37.075Z,2.30
2022-08-11T14:50:14.049Z,2.65
2022-08-11T14:52:50.594Z,2.78
2022-08-11T14:55:41.586Z,2.58
2022-08-11T14:58:11.574Z,2.53
2022-08-11T15:00:42.515Z,2.83
2022-08-11T15:03:14.189Z,2.67
2022-08-11T15:05:56.030Z,2.58
2022-08-11T15:08:47.469Z,2.58
2022-08-11T15:11:39.381Z,2.50
2022-08-11T15:14:09.487Z,2.72
2022-08-11T15:17:00.747Z,2.60
2022-08-11T15:19:40.716Z,2.55
2022-08-11T15:22:39.863Z,2.25
2022-08-11T15:25:09.282Z,2.47
2022-08-11T15:27:58.125Z,2.72
2022-08-11T15:30:46.153Z,2.95
2022-08-11T15:33:35.317Z,2.78
2022-08-11T15:36:26.155Z,2.75
2022-08-11T15:38:59.415Z,2.63
2022-08-11T15:41:54.507Z,2.25
2022-08-11T15:45:02.064Z,2.75
2022-08-11T15:47:42.263Z,2.50
2022-08-11T15:50:15.941Z,2.70
2022-08-11T15:52:51.118Z,2.58
2022-08-11T15:55:20.813Z,2.70
2022-08-11T15:58:13.888Z,2.72
2022-08-11T16:01:04.175Z,2.90
2022-08-11T16:04:05.947Z,2.50
2022-08-11T16:06:37.582Z,2.70
2022-08-11T16:09:18.565Z,2.90
2022-08-11T16:11:48.055Z,2.30
2022-08-11T16:14:35.846Z,2.30
2022-08-11T16:17:05.974Z,2.90
2022-08-11T16:19:37.641Z,2.58
2022-08-11T16:22:10.328Z,2.88
2022-08-11T16:26:30.632Z,2.60
2022-08-11T16:28:14.053Z,2.20
2022-08-11T16:30:46.401Z,2.50
2022-08-11T16:33:49.491Z,2.70
2022-08-11T16:36:26.261Z,3.10
2022-08-11T16:38:55.995Z,2.90
2022-08-11T16:41:47.316Z,2.90
2022-08-11T16:44:37.925Z,2.38
2022-08-11T16:47:08.603Z,2.35
2022-08-11T16:49:39.921Z,2.38
2022-08-11T16:52:12.116Z,2.95
2022-08-11T16:54:44.470Z,2.28
2022-08-11T16:57:35.717Z,2.40
2022-08-11T17:00:07.390Z,2.60
2022-08-11T17:03:10.710Z,2.42
2022-08-11T17:06:03.806Z,2.30
2022-08-11T17:08:57.027Z,2.00
2022-08-11T17:11:42.312Z,2.17
2022-08-11T17:14:17.344Z,2.05
2022-08-11T17:17:05.495Z,2.20
2022-08-11T17:20:38.295Z,2.67
2022-08-11T17:22:42.786Z,2.08
2022-08-11T17:25:12.263Z,2.60
2022-08-11T17:27:41.766Z,2.20
2022-08-11T17:30:14.058Z,2.30
2022-08-11T17:33:05.316Z,2.40
2022-08-11T17:35:39.011Z,2.33
2022-08-11T17:38:11.854Z,2.50
2022-08-11T17:41:02.498Z,2.53
2022-08-11T17:43:49.965Z,2.30
2022-08-11T17:46:38.477Z,2.75
2022-08-11T17:49:09.367Z,2.60
2022-08-11T17:51:57.350Z,2.50
2022-08-11T17:54:45.202Z,2.40
2022-08-11T17:57:36.261Z,2.42
2022-08-11T18:00:08.496Z,2.17
2022-08-11T18:02:58.557Z,2.55
2022-08-11T18:05:31.119Z,2.50
2022-08-11T18:08:19.675Z,2.50
2022-08-11T18:11:06.583Z,2.53
2022-08-11T18:13:55.192Z,2.35
2022-08-11T18:16:41.473Z,2.15
2022-08-11T18:19:30.871Z,2.00
2022-08-11T18:22:21.872Z,2.25
2022-08-11T18:25:12.881Z,2.45
2022-08-11T18:28:02.757Z,2.08
2022-08-11T18:30:54.615Z,2.00
2022-08-11T18:34:07.090Z,2.20
2022-08-11T18:36:59.048Z,2.17
2022-08-11T18:39:54.684Z,2.40
2022-08-11T18:42:43.867Z,2.10
2022-08-11T18:45:45.264Z,1.90
2022-08-11T18:48:37.242Z,2.20
2022-08-11T18:51:30.608Z,2.10
2022-08-11T18:54:27.343Z,2.28
2022-08-11T18:57:15.309Z,1.90
2022-08-11T19:00:03.520Z,2.33
2022-08-11T19:02:53.952Z,2.40
2022-08-11T19:06:32.116Z,2.60
2022-08-11T19:08:49.991Z,2.10
2022-08-11T19:11:42.712Z,2.58
2022-08-11T19:14:31.611Z,2.70
2022-08-11T19:17:44.080Z,2.70
2022-08-11T19:20:29.212Z,2.70
2022-08-11T19:23:17.337Z,2.47
2022-08-11T19:26:05.198Z,2.90
2022-08-11T19:28:53.906Z,2.90
2022-08-11T19:31:44.516Z,2.42
2022-08-11T19:34:34.211Z,3.00
2022-08-11T19:37:24.636Z,2.30
2022-08-11T19:40:11.845Z,2.50
2022-08-11T19:42:59.942Z,2.97
2022-08-11T19:45:52.273Z,2.88
2022-08-11T19:48:40.753Z,2.80
2022-08-11T19:51:28.365Z,2.80
2022-08-11T19:54:15.482Z,2.80
2022-08-11T19:57:03.003Z,2.75
2022-08-11T19:59:50.549Z,2.90
2022-08-11T20:02:38.466Z,2.50
2022-08-11T20:05:25.706Z,2.40
2022-08-11T20:08:14.908Z,2.22
2022-08-11T20:11:02.637Z,2.55
2022-08-11T20:13:50.287Z,2.33
2022-08-11T20:16:39.131Z,2.63
2022-08-11T20:19:55.277Z,2.90
2022-08-11T20:22:36.867Z,2.50
2022-08-11T20:25:24.250Z,2.80
2022-08-11T20:28:12.300Z,2.42
2022-08-11T20:30:59.716Z,2.80
2022-08-11T20:37:14.129Z,2.50
2022-08-11T20:40:02.662Z,2.40
2022-08-11T20:42:51.381Z,2.10
2022-08-11T20:45:37.880Z,2.53
2022-08-11T20:48:41.125Z,2.20
2022-08-11T20:51:33.973Z,2.47
2022-08-11T20:54:38.289Z,2.40
2022-08-11T20:57:58.630Z,2.40
2022-08-11T21:00:49.822Z,2.05
2022-08-11T21:03:52.252Z,2.10
2022-08-11T21:06:47.825Z,2.22
2022-08-11T21:10:09.338Z,2.40
2022-08-11T21:12:44.165Z,2.67
2022-08-11T21:15:47.392Z,2.78
2022-08-11T21:18:39.796Z,2.70
2022-08-11T21:21:28.314Z,2.50
2022-08-11T21:24:16.899Z,2.25
2022-08-11T21:27:06.939Z,2.00
2022-08-11T21:29:55.836Z,2.28
2022-08-11T21:32:44.216Z,2.30
2022-08-11T21:35:31.555Z,2.22
2022-08-11T21:38:20.053Z,1.98
2022-08-11T21:41:09.006Z,2.00
2022-08-11T21:43:59.263Z,2.40
2022-08-11T21:46:47.274Z,2.40
2022-08-11T21:49:34.865Z,2.35
2022-08-11T21:52:20.709Z,2.10
2022-08-11T21:55:09.206Z,2.38
2022-08-11T21:57:55.741Z,2.30
2022-08-11T22:00:43.245Z,2.38
2022-08-11T22:03:30.153Z,2.55
2022-08-11T22:06:23.054Z,2.30
2022-08-11T22:09:09.205Z,1.92
2022-08-11T22:12:33.835Z,2.05
2022-08-11T22:15:02.398Z,1.83
2022-08-11T22:17:49.365Z,2.10
2022-08-11T22:20:35.394Z,2.17
2022-08-11T22:23:22.444Z,2.20
2022-08-11T22:26:11.829Z,2.42
2022-08-11T22:28:58.403Z,2.38
2022-08-11T22:31:45.042Z,2.35
2022-08-11T22:34:32.931Z,2.30
2022-08-11T22:37:27.701Z,2.10
2022-08-11T22:40:15.621Z,2.42
2022-08-11T22:43:01.983Z,2.60
2022-08-11T22:45:48.586Z,2.30
2022-08-11T22:48:35.784Z,2.33
2022-08-11T22:51:23.344Z,2.50
2022-08-11T22:54:10.557Z,2.40
2022-08-11T22:56:57.986Z,2.80
2022-08-11T22:59:46.021Z,1.95
2022-08-11T23:02:32.858Z,2.20
2022-08-11T23:05:19.981Z,2.20
2022-08-11T23:08:07.743Z,2.10
2022-08-11T23:10:53.964Z,2.08
2022-08-11T23:13:40.603Z,2.40
2022-08-11T23:16:26.935Z,2.42
2022-08-11T23:19:14.394Z,2.00
2022-08-11T23:22:22.195Z,2.33
2022-08-11T23:25:09.925Z,2.67
2022-08-11T23:28:05.976Z,2.20
2022-08-11T23:30:53.614Z,2.30
2022-08-11T23:33:42.817Z,2.33
2022-08-11T23:36:36.048Z,2.17
2022-08-11T23:39:34.562Z,2.20
2022-08-11T23:42:22.916Z,2.42
2022-08-11T23:45:10.287Z,2.30
2022-08-11T23:47:57.722Z,2.45
2022-08-11T23:50:44.592Z,2.47
2022-08-11T23:53:32.268Z,2.42
2022-08-11T23:56:21.699Z,2.63
2022-08-11T23:59:10.396Z,2.33
